N8767 MMCV-KAMA
Flight info
| Callsign | N8767 |
|---|---|
| Flight time | N/A |
| Altitude | 36000 |
| Route | CVM4A CVM J21 LRD DCT JCT DCT PNH |
| Aircraft | B737/M-SDE2E3FGHIRWXY/LB1 |
Departure
| Time | 2026-04-30 14:17 |
|---|---|
| Airport | General Pedro Jose Mendez International Airport (MMCV) |
Arrival
| Time | N/A |
|---|---|
| Airport | Rick Husband Amarillo International Airport (KAMA) |
| Time | Latitude | Longitude | Altitude | Speed | Heading |
|---|---|---|---|---|---|
| 2026-04-30 14:10 | 23.71142 | -98.95653 | 787 ft | 0 kts | 65° |
| 2026-04-30 14:13 | 23.71143 | -98.95652 | 787 ft | 1 kts | 70° |
| 2026-04-30 14:14 | 23.71136 | -98.95637 | 787 ft | 3 kts | 138° |
| 2026-04-30 14:14 | 23.71117 | -98.95649 | 787 ft | 4 kts | 255° |
| 2026-04-30 14:14 | 23.71134 | -98.95690 | 787 ft | 8 kts | 317° |
| 2026-04-30 14:14 | 23.71164 | -98.95749 | 787 ft | 10 kts | 255° |
| 2026-04-30 14:15 | 23.71177 | -98.95816 | 787 ft | 10 kts | 334° |
| 2026-04-30 14:15 | 23.71232 | -98.95841 | 787 ft | 11 kts | 338° |
| 2026-04-30 14:15 | 23.71302 | -98.95879 | 787 ft | 11 kts | 314° |
| 2026-04-30 14:15 | 23.71289 | -98.95958 | 787 ft | 11 kts | 245° |
| 2026-04-30 14:16 | 23.71257 | -98.96034 | 787 ft | 11 kts | 245° |
| 2026-04-30 14:16 | 23.71196 | -98.96050 | 787 ft | 11 kts | 156° |
| 2026-04-30 14:16 | 23.71040 | -98.95976 | 787 ft | 55 kts | 156° |
| 2026-04-30 14:16 | 23.70464 | -98.95705 | 787 ft | 123 kts | 156° |
| 2026-04-30 14:17 | 23.69538 | -98.95257 | 1007 ft | 157 kts | 156° |
| 2026-04-30 14:17 | 23.68542 | -98.94762 | 1739 ft | 154 kts | 155° |
| 2026-04-30 14:17 | 23.67593 | -98.94254 | 2561 ft | 150 kts | 155° |
| 2026-04-30 14:17 | 23.66635 | -98.93746 | 3227 ft | 151 kts | 156° |
| 2026-04-30 14:18 | 23.65651 | -98.93230 | 3778 ft | 160 kts | 156° |
| 2026-04-30 14:18 | 23.64632 | -98.92701 | 4321 ft | 172 kts | 157° |
| 2026-04-30 14:18 | 23.62151 | -98.91424 | 5022 ft | 214 kts | 156° |
| 2026-04-30 14:19 | 23.59471 | -98.89933 | 6486 ft | 221 kts | 140° |
| 2026-04-30 14:19 | 23.58617 | -98.88546 | 7187 ft | 229 kts | 110° |
| 2026-04-30 14:19 | 23.58498 | -98.86792 | 7946 ft | 238 kts | 81° |
| 2026-04-30 14:20 | 23.59194 | -98.85139 | 8696 ft | 248 kts | 51° |
| 2026-04-30 14:20 | 23.60606 | -98.84047 | 9472 ft | 256 kts | 20° |
| 2026-04-30 14:20 | 23.64316 | -98.84551 | 10095 ft | 302 kts | 323° |
| 2026-04-30 14:21 | 23.65775 | -98.86284 | 10300 ft | 324 kts | 296° |
| 2026-04-30 14:21 | 23.66723 | -98.88598 | 10617 ft | 342 kts | 290° |
| 2026-04-30 14:21 | 23.68669 | -98.93410 | 12191 ft | 348 kts | 295° |
| 2026-04-30 14:22 | 23.69740 | -98.95743 | 13045 ft | 349 kts | 301° |
| 2026-04-30 14:22 | 23.73554 | -98.98845 | 14667 ft | 354 kts | 345° |
| 2026-04-30 14:22 | 23.76014 | -98.99062 | 15366 ft | 362 kts | 4° |
| 2026-04-30 14:23 | 23.80773 | -98.97060 | 16795 ft | 372 kts | 15° |
| 2026-04-30 14:23 | 23.85920 | -98.97034 | 18244 ft | 374 kts | 350° |
| 2026-04-30 14:24 | 23.91120 | -98.97868 | 19516 ft | 381 kts | 349° |
| 2026-04-30 14:24 | 23.93755 | -98.98272 | 20167 ft | 384 kts | 350° |
| 2026-04-30 14:25 | 23.99095 | -98.99022 | 21442 ft | 390 kts | 350° |
| 2026-04-30 14:25 | 24.04534 | -98.99741 | 22532 ft | 400 kts | 350° |
| 2026-04-30 14:26 | 24.10105 | -99.00467 | 23681 ft | 406 kts | 350° |
| 2026-04-30 14:26 | 24.12924 | -99.00834 | 24165 ft | 409 kts | 350° |
| 2026-04-30 14:26 | 24.18607 | -99.01578 | 25138 ft | 414 kts | 349° |
| 2026-04-30 14:27 | 24.21472 | -99.01951 | 25616 ft | 416 kts | 350° |
| 2026-04-30 14:27 | 24.24364 | -99.02305 | 26081 ft | 419 kts | 350° |
| 2026-04-30 14:27 | 24.27276 | -99.02650 | 26535 ft | 422 kts | 350° |
| 2026-04-30 14:28 | 24.33172 | -99.03342 | 27418 ft | 428 kts | 349° |
| 2026-04-30 14:28 | 24.36144 | -99.03693 | 27846 ft | 430 kts | 349° |
| 2026-04-30 14:28 | 24.39089 | -99.04043 | 28242 ft | 433 kts | 349° |
| 2026-04-30 14:28 | 24.42084 | -99.04399 | 28656 ft | 436 kts | 349° |
| 2026-04-30 14:29 | 24.48164 | -99.05126 | 29425 ft | 442 kts | 349° |
| 2026-04-30 14:29 | 24.53295 | -99.05739 | 30158 ft | 442 kts | 349° |
| 2026-04-30 14:30 | 24.63437 | -99.06951 | 31614 ft | 442 kts | 349° |
| 2026-04-30 14:31 | 24.69537 | -99.07682 | 32592 ft | 439 kts | 349° |
| 2026-04-30 14:31 | 24.75617 | -99.08412 | 33405 ft | 439 kts | 349° |
| 2026-04-30 14:31 | 24.78652 | -99.08777 | 33832 ft | 438 kts | 349° |
| 2026-04-30 14:32 | 24.84694 | -99.09502 | 34621 ft | 434 kts | 348° |
| 2026-04-30 14:32 | 24.87690 | -99.09862 | 35053 ft | 431 kts | 348° |
| 2026-04-30 14:32 | 24.90655 | -99.10219 | 35470 ft | 428 kts | 348° |
| 2026-04-30 14:33 | 24.93615 | -99.10576 | 35817 ft | 427 kts | 348° |
| 2026-04-30 14:33 | 25.02550 | -99.11656 | 35837 ft | 430 kts | 348° |
| 2026-04-30 14:34 | 25.08442 | -99.12361 | 35843 ft | 424 kts | 348° |
| 2026-04-30 14:34 | 25.14322 | -99.13074 | 35859 ft | 428 kts | 348° |
| 2026-04-30 14:35 | 25.19312 | -99.13684 | 35862 ft | 439 kts | 348° |
| 2026-04-30 14:35 | 25.23407 | -99.14183 | 35858 ft | 448 kts | 348° |
| 2026-04-30 14:36 | 25.29681 | -99.14943 | 35853 ft | 457 kts | 348° |
| 2026-04-30 14:36 | 25.35968 | -99.15699 | 35833 ft | 456 kts | 348° |
| 2026-04-30 14:37 | 25.42319 | -99.16466 | 35837 ft | 455 kts | 348° |
| 2026-04-30 14:37 | 25.48576 | -99.17225 | 35839 ft | 455 kts | 348° |
| 2026-04-30 14:38 | 25.53809 | -99.17862 | 35847 ft | 455 kts | 348° |
| 2026-04-30 14:38 | 25.60114 | -99.18630 | 35843 ft | 455 kts | 348° |
| 2026-04-30 14:39 | 25.66403 | -99.19397 | 35840 ft | 455 kts | 348° |
| 2026-04-30 14:39 | 25.72696 | -99.20164 | 35842 ft | 455 kts | 348° |
| 2026-04-30 14:40 | 25.82147 | -99.21318 | 35844 ft | 455 kts | 348° |
| 2026-04-30 14:40 | 25.88397 | -99.22080 | 35842 ft | 455 kts | 347° |
| 2026-04-30 14:41 | 25.94693 | -99.22849 | 35844 ft | 455 kts | 347° |
| 2026-04-30 14:41 | 26.00991 | -99.23618 | 35842 ft | 455 kts | 347° |
| 2026-04-30 14:42 | 26.07298 | -99.24390 | 35844 ft | 455 kts | 347° |
| 2026-04-30 14:42 | 26.13587 | -99.25161 | 35847 ft | 455 kts | 347° |
| 2026-04-30 14:43 | 26.19857 | -99.25930 | 35845 ft | 455 kts | 347° |
| 2026-04-30 14:43 | 26.26159 | -99.26704 | 35855 ft | 455 kts | 347° |
| 2026-04-30 14:44 | 26.32452 | -99.27478 | 35853 ft | 456 kts | 347° |
| 2026-04-30 14:44 | 26.38760 | -99.28254 | 35853 ft | 456 kts | 347° |
| 2026-04-30 14:45 | 26.45069 | -99.29024 | 35852 ft | 456 kts | 348° |
| 2026-04-30 14:45 | 26.51370 | -99.29622 | 35857 ft | 457 kts | 349° |
| 2026-04-30 14:46 | 26.57722 | -99.30163 | 35858 ft | 457 kts | 349° |
| 2026-04-30 14:46 | 26.64069 | -99.30723 | 35869 ft | 457 kts | 349° |
| 2026-04-30 14:47 | 26.70411 | -99.31299 | 35877 ft | 457 kts | 348° |
| 2026-04-30 14:47 | 26.76756 | -99.31879 | 35885 ft | 457 kts | 348° |
| 2026-04-30 14:48 | 26.83095 | -99.32458 | 35889 ft | 457 kts | 348° |
| 2026-04-30 14:48 | 26.89436 | -99.33037 | 35899 ft | 457 kts | 348° |
| 2026-04-30 14:49 | 26.95766 | -99.33684 | 35897 ft | 455 kts | 346° |
| 2026-04-30 14:49 | 27.01995 | -99.34640 | 35903 ft | 453 kts | 345° |
| 2026-04-30 14:50 | 27.11374 | -99.36154 | 35896 ft | 454 kts | 345° |
| 2026-04-30 14:51 | 27.20747 | -99.37606 | 35888 ft | 454 kts | 345° |
| 2026-04-30 14:52 | 27.30145 | -99.39054 | 35895 ft | 454 kts | 345° |
| 2026-04-30 14:52 | 27.39497 | -99.40498 | 35905 ft | 454 kts | 345° |
| 2026-04-30 14:53 | 27.48877 | -99.41945 | 35902 ft | 454 kts | 346° |
| 2026-04-30 14:54 | 27.61497 | -99.43516 | 35899 ft | 456 kts | 347° |
| 2026-04-30 14:55 | 27.70955 | -99.44668 | 35905 ft | 456 kts | 346° |
| 2026-04-30 14:56 | 27.83524 | -99.46235 | 35905 ft | 455 kts | 346° |
| 2026-04-30 14:57 | 27.92970 | -99.47417 | 35913 ft | 455 kts | 346° |
| 2026-04-30 14:58 | 28.05564 | -99.48996 | 35911 ft | 455 kts | 346° |
| 2026-04-30 14:58 | 28.15014 | -99.50183 | 35918 ft | 455 kts | 346° |
| 2026-04-30 15:00 | 28.30710 | -99.52159 | 35924 ft | 455 kts | 346° |
| 2026-04-30 15:01 | 28.43287 | -99.53746 | 35930 ft | 454 kts | 346° |
| 2026-04-30 15:01 | 28.52708 | -99.54938 | 35938 ft | 454 kts | 345° |
| 2026-04-30 15:02 | 28.58995 | -99.55735 | 35940 ft | 454 kts | 346° |
| 2026-04-30 15:03 | 28.74743 | -99.57735 | 35925 ft | 456 kts | 345° |
| 2026-04-30 15:04 | 28.90504 | -99.59742 | 35925 ft | 457 kts | 345° |
| 2026-04-30 15:06 | 29.06329 | -99.61763 | 35950 ft | 459 kts | 345° |
| 2026-04-30 15:07 | 29.19038 | -99.63391 | 35961 ft | 460 kts | 345° |
| 2026-04-30 15:08 | 29.31747 | -99.65023 | 35958 ft | 461 kts | 345° |
| 2026-04-30 15:09 | 29.47686 | -99.67075 | 35936 ft | 461 kts | 345° |
| 2026-04-30 15:10 | 29.60446 | -99.68722 | 35918 ft | 460 kts | 345° |
| 2026-04-30 15:11 | 29.79491 | -99.71189 | 35926 ft | 459 kts | 345° |
| 2026-04-30 15:13 | 29.95314 | -99.73246 | 35929 ft | 458 kts | 345° |
| 2026-04-30 15:14 | 30.17502 | -99.76143 | 35947 ft | 459 kts | 345° |
| 2026-04-30 15:17 | 30.46122 | -99.79898 | 36050 ft | 462 kts | 345° |
| 2026-04-30 15:18 | 30.61988 | -99.82404 | 36035 ft | 452 kts | 334° |
| 2026-04-30 15:19 | 30.70906 | -99.85879 | 36007 ft | 450 kts | 332° |